createdAt,value
2018-04-15T00:01:00.968Z,5.37
2018-04-15T00:03:28.429Z,5.03
2018-04-15T00:05:55.888Z,5.60
2018-04-15T00:08:23.322Z,4.90
2018-04-15T00:10:50.772Z,6.87
2018-04-15T00:13:18.243Z,5.90
2018-04-15T00:15:45.676Z,6.17
2018-04-15T00:18:13.125Z,5.43
2018-04-15T00:20:40.561Z,4.50
2018-04-15T00:23:08.005Z,5.47
2018-04-15T00:25:35.459Z,5.23
2018-04-15T00:28:02.907Z,5.17
2018-04-15T00:30:30.371Z,6.17
2018-04-15T00:32:58.116Z,5.03
2018-04-15T00:35:25.652Z,4.60
2018-04-15T00:37:53.104Z,4.40
2018-04-15T00:40:20.555Z,5.27
2018-04-15T00:42:48.011Z,4.60
2018-04-15T00:45:15.472Z,5.57
2018-04-15T00:47:42.919Z,4.63
2018-04-15T00:50:10.367Z,5.10
2018-04-15T00:52:37.814Z,6.10
2018-04-15T00:55:05.266Z,5.13
2018-04-15T00:57:32.899Z,6.23
2018-04-15T01:00:00.356Z,6.07
2018-04-15T01:02:27.820Z,4.90
2018-04-15T01:04:55.288Z,4.77
2018-04-15T01:07:22.733Z,4.63
2018-04-15T01:09:50.996Z,5.47
2018-04-15T01:12:18.445Z,5.10
2018-04-15T01:14:45.879Z,4.60
2018-04-15T01:17:13.335Z,5.63
2018-04-15T01:19:40.791Z,4.53
2018-04-15T01:22:08.219Z,4.63
2018-04-15T01:24:35.688Z,4.97
2018-04-15T01:27:03.954Z,6.47
2018-04-15T01:29:31.384Z,6.37
2018-04-15T01:31:58.857Z,6.07
2018-04-15T01:34:28.901Z,4.07
2018-04-15T01:36:56.365Z,4.50
2018-04-15T01:39:23.807Z,5.20
2018-04-15T01:41:51.512Z,4.93
2018-04-15T01:44:18.985Z,5.40
2018-04-15T01:46:46.416Z,4.80
2018-04-15T01:49:13.875Z,4.23
2018-04-15T01:51:41.342Z,5.43
2018-04-15T01:54:08.791Z,6.03
2018-04-15T01:56:36.248Z,5.27
2018-04-15T01:59:03.675Z,5.50
2018-04-15T02:01:31.227Z,6.27
2018-04-15T02:03:58.682Z,4.43
2018-04-15T02:06:26.188Z,4.60
2018-04-15T02:08:53.705Z,5.77
2018-04-15T02:11:21.110Z,6.50
2018-04-15T02:13:48.868Z,6.80
2018-04-15T02:16:16.545Z,6.27
2018-04-15T02:18:43.985Z,5.63
2018-04-15T02:21:11.473Z,5.57
2018-04-15T02:23:38.911Z,6.63
2018-04-15T02:26:06.382Z,5.80
2018-04-15T02:28:33.815Z,5.60
2018-04-15T02:31:01.252Z,4.90
2018-04-15T02:33:28.725Z,4.53
2018-04-15T02:35:56.472Z,5.10
2018-04-15T02:38:23.933Z,3.97
2018-04-15T02:40:51.483Z,3.87
2018-04-15T02:43:18.924Z,3.83
2018-04-15T02:45:46.371Z,4.30
2018-04-15T02:48:13.893Z,5.20
2018-04-15T02:50:41.343Z,4.20
2018-04-15T02:53:09.021Z,3.50
2018-04-15T02:55:36.498Z,2.83
2018-04-15T02:58:04.140Z,3.70
2018-04-15T03:00:31.579Z,2.77
2018-04-15T03:02:59.048Z,2.80
2018-04-15T03:05:26.478Z,2.70
2018-04-15T03:07:53.911Z,3.33
2018-04-15T03:10:21.379Z,3.87
2018-04-15T03:12:48.804Z,3.13
2018-04-15T03:15:16.267Z,3.50
2018-04-15T03:17:43.703Z,2.90
2018-04-15T03:20:11.140Z,2.87
2018-04-15T03:22:38.617Z,3.40
2018-04-15T03:25:06.072Z,3.17
2018-04-15T03:27:33.516Z,3.37
2018-04-15T03:30:00.959Z,3.30
2018-04-15T03:32:28.620Z,3.87
2018-04-15T03:34:56.085Z,2.90
2018-04-15T03:37:23.536Z,2.90
2018-04-15T03:39:50.999Z,3.23
2018-04-15T03:42:18.429Z,2.70
2018-04-15T03:44:45.870Z,2.27
2018-04-15T03:47:13.315Z,2.07
2018-04-15T03:49:40.931Z,1.70
2018-04-15T03:52:08.407Z,2.43
2018-04-15T03:54:35.870Z,1.70
2018-04-15T03:57:03.314Z,2.00
2018-04-15T03:59:30.759Z,1.40
2018-04-15T04:01:58.197Z,1.70
2018-04-15T04:04:25.804Z,1.17
2018-04-15T04:06:53.255Z,1.93
2018-04-15T04:09:20.695Z,1.10
2018-04-15T04:11:48.190Z,1.50
2018-04-15T04:14:15.639Z,1.30
2018-04-15T04:16:43.319Z,1.73
2018-04-15T04:19:22.472Z,1.77
2018-04-15T04:22:01.779Z,1.67
2018-04-15T04:24:41.081Z,1.60
2018-04-15T04:27:08.533Z,1.40
2018-04-15T04:29:35.974Z,1.90
2018-04-15T04:32:03.416Z,1.63
2018-04-15T04:34:31.718Z,1.37
2018-04-15T04:36:59.171Z,1.50
2018-04-15T04:39:26.642Z,1.43
2018-04-15T04:41:54.085Z,1.73
2018-04-15T04:44:21.534Z,1.67
2018-04-15T04:46:48.984Z,2.40
2018-04-15T04:49:16.429Z,2.43
2018-04-15T04:51:44.000Z,1.70
2018-04-15T04:54:11.462Z,2.37
2018-04-15T04:56:38.904Z,1.50
2018-04-15T04:59:06.348Z,1.50
2018-04-15T05:01:33.801Z,1.50
2018-04-15T05:04:01.252Z,1.60
2018-04-15T05:06:28.699Z,2.37
2018-04-15T05:08:56.138Z,1.33
2018-04-15T05:11:23.598Z,1.70
2018-04-15T05:13:51.055Z,1.33
2018-04-15T05:16:18.503Z,1.57
2018-04-15T05:18:45.949Z,1.50
2018-04-15T05:21:13.752Z,1.73
2018-04-15T05:23:41.195Z,1.80
2018-04-15T05:26:08.668Z,1.63
2018-04-15T05:28:36.137Z,1.53
2018-04-15T05:31:03.585Z,1.53
2018-04-15T05:33:31.024Z,1.27
2018-04-15T05:35:58.484Z,1.10
2018-04-15T05:38:25.924Z,1.63
2018-04-15T05:40:53.374Z,1.80
2018-04-15T05:43:21.581Z,1.70
2018-04-15T05:45:49.024Z,2.17
2018-04-15T05:48:16.478Z,1.83
2018-04-15T05:50:43.919Z,1.07
2018-04-15T05:53:11.371Z,1.70
2018-04-15T05:55:38.802Z,1.00
2018-04-15T05:58:06.240Z,1.30
2018-04-15T06:00:33.692Z,1.53
2018-04-15T06:03:01.146Z,1.47
2018-04-15T06:05:28.600Z,1.33
2018-04-15T06:08:04.456Z,1.13
2018-04-15T06:10:31.896Z,1.60
2018-04-15T06:12:59.348Z,1.00
2018-04-15T06:15:26.791Z,1.93
2018-04-15T06:17:54.403Z,1.03
2018-04-15T06:20:22.209Z,1.87
2018-04-15T06:22:49.834Z,1.17
2018-04-15T06:25:17.280Z,1.33
2018-04-15T06:27:44.718Z,1.10
2018-04-15T06:30:12.189Z,1.13
2018-04-15T06:32:39.652Z,1.37
2018-04-15T06:35:07.100Z,2.57
2018-04-15T06:37:34.545Z,1.50
2018-04-15T06:40:01.982Z,1.30
2018-04-15T06:42:29.432Z,1.60
2018-04-15T06:44:56.872Z,1.53
2018-04-15T06:47:24.328Z,1.10
2018-04-15T06:49:51.772Z,1.57
2018-04-15T06:52:19.210Z,1.50
2018-04-15T06:54:46.656Z,1.60
2018-04-15T06:57:14.860Z,1.30
2018-04-15T06:59:42.308Z,1.47
2018-04-15T07:02:09.761Z,1.20
2018-04-15T07:04:37.200Z,1.50
2018-04-15T07:07:05.410Z,1.00
2018-04-15T07:09:32.857Z,1.73
2018-04-15T07:12:00.300Z,1.40
2018-04-15T07:14:27.738Z,1.17
2018-04-15T07:16:55.188Z,0.97
2018-04-15T07:19:22.637Z,1.30
2018-04-15T07:21:50.294Z,1.57
2018-04-15T07:24:17.728Z,1.20
2018-04-15T07:29:18.964Z,1.10
2018-04-15T07:31:46.417Z,1.30
2018-04-15T07:34:13.852Z,1.47
2018-04-15T07:36:41.302Z,1.40
2018-04-15T07:39:08.755Z,1.70
2018-04-15T07:41:36.211Z,1.30
2018-04-15T07:44:03.658Z,1.47
2018-04-15T07:46:31.104Z,1.63
2018-04-15T07:48:58.557Z,1.07
2018-04-15T07:51:26.093Z,0.97
2018-04-15T07:53:53.800Z,1.00
2018-04-15T07:56:21.376Z,1.23
2018-04-15T07:58:49.600Z,1.37
2018-04-15T08:01:17.080Z,1.10
2018-04-15T08:03:44.510Z,1.20
2018-04-15T08:06:11.971Z,1.30
2018-04-15T08:08:39.407Z,1.20
2018-04-15T08:11:06.849Z,1.73
2018-04-15T08:13:34.370Z,1.17
2018-04-15T08:16:01.813Z,1.27
2018-04-15T08:18:29.277Z,1.60
2018-04-15T08:20:56.728Z,1.57
2018-04-15T08:23:24.180Z,1.30
2018-04-15T08:25:51.887Z,2.50
2018-04-15T08:28:19.333Z,1.20
2018-04-15T08:30:46.759Z,1.20
2018-04-15T08:33:14.970Z,1.03
2018-04-15T08:35:42.409Z,1.20
2018-04-15T08:38:09.855Z,1.67
2018-04-15T08:40:37.380Z,1.63
2018-04-15T08:43:04.819Z,1.37
2018-04-15T08:45:32.276Z,1.73
2018-04-15T08:47:59.841Z,1.47
2018-04-15T08:50:27.279Z,1.27
2018-04-15T08:52:54.719Z,1.63
2018-04-15T08:55:22.160Z,1.50
2018-04-15T08:57:49.615Z,1.10
2018-04-15T09:00:17.363Z,1.60
2018-04-15T09:02:44.828Z,1.07
2018-04-15T09:05:12.807Z,1.40
2018-04-15T09:07:40.241Z,1.37
2018-04-15T09:10:07.687Z,1.33
2018-04-15T09:12:35.157Z,1.23
2018-04-15T09:15:02.588Z,1.73
2018-04-15T09:17:30.809Z,1.80
2018-04-15T09:19:58.244Z,1.53
2018-04-15T09:22:25.685Z,1.40
2018-04-15T09:24:53.136Z,2.37
2018-04-15T09:27:20.582Z,1.50
2018-04-15T09:29:48.041Z,2.73
2018-04-15T09:32:15.489Z,1.80
2018-04-15T09:34:43.450Z,2.20
2018-04-15T09:37:10.868Z,2.60
2018-04-15T09:39:38.307Z,2.20
2018-04-15T09:42:05.743Z,1.70
2018-04-15T09:44:33.175Z,1.50
2018-04-15T09:47:00.882Z,2.07
2018-04-15T09:49:28.319Z,2.20
2018-04-15T09:51:56.205Z,2.03
2018-04-15T09:54:23.657Z,1.60
2018-04-15T09:56:51.103Z,1.90
2018-04-15T09:59:18.679Z,1.33
2018-04-15T10:01:46.131Z,1.95
2018-04-15T10:04:15.084Z,1.80
2018-04-15T10:06:42.520Z,1.33
2018-04-15T10:09:09.960Z,1.57
2018-04-15T10:11:37.415Z,1.80
2018-04-15T10:14:04.860Z,1.43
2018-04-15T10:16:32.663Z,1.90
2018-04-15T10:19:00.125Z,1.60
2018-04-15T10:21:27.571Z,1.40
2018-04-15T10:23:55.073Z,1.70
2018-04-15T10:26:22.911Z,1.90
2018-04-15T10:28:50.357Z,1.77
2018-04-15T10:31:18.168Z,1.77
2018-04-15T10:33:45.607Z,2.23
2018-04-15T10:36:13.057Z,1.67
2018-04-15T10:38:40.502Z,1.87
2018-04-15T10:41:07.939Z,1.50
2018-04-15T10:43:35.398Z,1.70
2018-04-15T10:46:03.048Z,1.90
2018-04-15T10:48:30.452Z,1.53
2018-04-15T10:50:57.891Z,0.90
2018-04-15T10:53:26.095Z,1.20
2018-04-15T10:55:53.544Z,2.30
2018-04-15T10:58:21.305Z,1.90
2018-04-15T11:00:48.817Z,2.23
2018-04-15T11:03:16.266Z,1.60
2018-04-15T11:05:43.704Z,1.63
2018-04-15T11:08:11.148Z,2.27
2018-04-15T11:10:39.378Z,1.53
2018-04-15T11:13:07.153Z,1.37
2018-04-15T11:15:34.624Z,1.20
2018-04-15T11:18:02.067Z,1.10
2018-04-15T11:20:29.515Z,1.63
2018-04-15T11:22:56.956Z,1.43
2018-04-15T11:25:24.413Z,1.57
2018-04-15T11:27:51.857Z,2.47
2018-04-15T11:30:19.296Z,1.90
2018-04-15T11:32:46.754Z,1.90
2018-04-15T11:35:14.183Z,1.73
2018-04-15T11:37:42.153Z,1.40
2018-04-15T11:40:09.645Z,1.53
2018-04-15T11:42:37.073Z,1.40
2018-04-15T11:45:04.537Z,1.77
2018-04-15T11:47:31.972Z,1.60
2018-04-15T11:50:00.482Z,1.60
2018-04-15T11:52:27.973Z,1.40
2018-04-15T11:54:55.412Z,1.63
2018-04-15T11:57:22.890Z,2.27
2018-04-15T11:59:50.429Z,2.40
2018-04-15T12:02:17.928Z,2.40
2018-04-15T12:04:45.564Z,2.80
2018-04-15T12:07:13.003Z,1.63
2018-04-15T12:09:40.464Z,1.57
2018-04-15T12:12:08.588Z,1.30
2018-04-15T12:14:36.127Z,1.30
2018-04-15T12:17:03.584Z,1.43
2018-04-15T12:19:31.041Z,1.60
2018-04-15T12:21:58.495Z,2.20
2018-04-15T12:24:25.945Z,1.97
2018-04-15T12:26:53.955Z,2.23
2018-04-15T12:29:21.507Z,2.13
2018-04-15T12:31:48.947Z,2.17
2018-04-15T12:34:16.399Z,1.43
2018-04-15T12:36:44.852Z,1.67
2018-04-15T12:39:12.325Z,1.93
2018-04-15T12:41:39.768Z,1.70
2018-04-15T12:44:07.209Z,1.70
2018-04-15T12:46:39.137Z,2.27
2018-04-15T12:49:07.662Z,1.53
2018-04-15T12:51:35.127Z,1.80
2018-04-15T12:54:02.566Z,1.63
2018-04-15T12:56:30.000Z,1.50
2018-04-15T12:59:03.179Z,1.77
2018-04-15T13:01:30.608Z,2.00
2018-04-15T13:03:59.290Z,1.80
2018-04-15T13:06:26.972Z,2.63
2018-04-15T13:08:55.317Z,1.90
2018-04-15T13:11:22.807Z,2.00
2018-04-15T13:13:50.209Z,1.87
2018-04-15T13:16:17.645Z,2.13
2018-04-15T13:18:45.099Z,2.20
2018-04-15T13:21:12.540Z,1.53
2018-04-15T13:23:39.996Z,1.87
2018-04-15T13:26:09.272Z,1.83
2018-04-15T13:28:37.482Z,2.10
2018-04-15T13:31:04.932Z,2.20
2018-04-15T13:33:32.372Z,2.57
2018-04-15T13:35:59.816Z,1.80
2018-04-15T13:38:27.264Z,1.80
2018-04-15T13:40:54.704Z,1.60
2018-04-15T13:43:22.164Z,1.90
2018-04-15T13:45:49.623Z,1.97
2018-04-15T13:48:17.127Z,1.80
2018-04-15T13:50:45.331Z,1.30
2018-04-15T13:53:12.811Z,1.57
2018-04-15T13:55:41.007Z,2.00
2018-04-15T13:58:08.464Z,1.90
2018-04-15T14:00:35.913Z,2.00
2018-04-15T14:03:03.343Z,1.87
2018-04-15T14:05:31.547Z,1.33
2018-04-15T14:07:58.996Z,1.63
2018-04-15T14:10:26.448Z,1.40
2018-04-15T14:12:53.942Z,1.00
2018-04-15T14:15:21.376Z,2.07
2018-04-15T14:17:48.826Z,1.80
2018-04-15T14:20:16.387Z,1.20
2018-04-15T14:22:44.593Z,1.20
2018-04-15T14:25:12.080Z,1.10
2018-04-15T14:27:39.480Z,1.30
2018-04-15T14:30:07.298Z,1.30
2018-04-15T14:32:34.733Z,1.33
2018-04-15T14:35:02.186Z,1.33
2018-04-15T14:37:29.641Z,1.13
2018-04-15T14:39:58.295Z,1.10
2018-04-15T14:42:25.740Z,1.20
2018-04-15T14:44:53.225Z,0.90
2018-04-15T14:47:20.651Z,1.10
2018-04-15T14:49:48.302Z,1.13
2018-04-15T14:52:16.004Z,1.33
2018-04-15T14:54:43.868Z,1.47
2018-04-15T14:57:11.328Z,0.80
2018-04-15T14:59:38.803Z,1.13
2018-04-15T15:02:06.267Z,1.30
2018-04-15T15:04:34.342Z,1.00
2018-04-15T15:07:01.787Z,0.90
2018-04-15T15:09:29.256Z,1.07
2018-04-15T15:11:56.710Z,1.10
2018-04-15T15:14:24.153Z,1.60
2018-04-15T15:16:51.592Z,1.50
2018-04-15T15:19:19.071Z,1.10
2018-04-15T15:21:46.545Z,1.37
2018-04-15T15:24:13.992Z,1.80
2018-04-15T15:26:41.448Z,1.77
2018-04-15T15:29:08.991Z,1.27
2018-04-15T15:31:37.213Z,1.93
2018-04-15T15:34:04.653Z,1.50
2018-04-15T15:36:32.234Z,0.90
2018-04-15T15:38:59.717Z,0.90
2018-04-15T15:41:27.168Z,1.10
2018-04-15T15:43:54.603Z,1.40
2018-04-15T15:46:22.411Z,1.30
2018-04-15T15:48:55.148Z,0.87
2018-04-15T15:51:23.272Z,1.37
2018-04-15T15:53:50.719Z,1.33
2018-04-15T15:56:18.308Z,1.20
2018-04-15T15:58:45.771Z,0.90
2018-04-15T16:01:13.211Z,1.03
2018-04-15T16:03:40.703Z,1.10
2018-04-15T16:06:08.451Z,1.40
2018-04-15T16:08:35.928Z,0.97
2018-04-15T16:11:03.391Z,0.93
2018-04-15T16:13:30.817Z,1.10
2018-04-15T16:15:58.245Z,1.03
2018-04-15T16:18:25.697Z,1.57
2018-04-15T16:20:53.142Z,0.93
2018-04-15T16:23:20.611Z,1.20
2018-04-15T16:25:48.043Z,1.47
2018-04-15T16:28:15.738Z,1.50
2018-04-15T16:30:44.797Z,1.40
2018-04-15T16:33:12.485Z,1.50
2018-04-15T16:35:39.925Z,1.20
2018-04-15T16:38:07.383Z,1.60
2018-04-15T16:40:35.079Z,1.20
2018-04-15T16:43:02.529Z,1.03
2018-04-15T16:45:30.000Z,0.90
2018-04-15T16:47:57.500Z,1.30
2018-04-15T16:50:25.012Z,1.20
2018-04-15T16:52:52.488Z,1.57
2018-04-15T16:55:19.941Z,1.30
2018-04-15T16:57:47.387Z,2.07
2018-04-15T17:00:14.887Z,2.20
2018-04-15T17:02:42.307Z,2.63
2018-04-15T17:05:09.762Z,2.00
2018-04-15T17:07:38.631Z,1.87
2018-04-15T17:10:06.075Z,2.30
2018-04-15T17:12:33.526Z,1.87
2018-04-15T17:15:01.742Z,2.20
2018-04-15T17:17:29.264Z,2.63
2018-04-15T17:19:56.718Z,2.30
2018-04-15T17:22:24.156Z,1.90
2018-04-15T17:24:51.621Z,3.03
2018-04-15T17:27:19.399Z,2.37
2018-04-15T17:29:46.820Z,2.60
2018-04-15T17:32:14.334Z,2.17
2018-04-15T17:34:41.960Z,2.50
2018-04-15T17:37:09.423Z,2.37
2018-04-15T17:39:36.868Z,2.23
2018-04-15T17:42:04.332Z,2.07
2018-04-15T17:44:32.144Z,3.03
2018-04-15T17:46:59.594Z,2.40
2018-04-15T17:49:27.037Z,2.40
2018-04-15T17:51:54.505Z,2.57
2018-04-15T17:54:22.088Z,1.90
2018-04-15T17:56:49.545Z,2.70
2018-04-15T17:59:17.217Z,2.47
2018-04-15T18:01:44.676Z,1.97
2018-04-15T18:04:12.193Z,2.57
2018-04-15T18:06:39.645Z,2.77
2018-04-15T18:09:07.137Z,3.13
2018-04-15T18:11:34.525Z,3.60
2018-04-15T18:14:02.107Z,3.27
2018-04-15T18:16:29.571Z,3.53
2018-04-15T18:18:58.597Z,3.43
2018-04-15T18:21:26.824Z,2.43
2018-04-15T18:23:54.321Z,3.03
2018-04-15T18:26:21.717Z,2.87
2018-04-15T18:28:49.345Z,2.37
2018-04-15T18:31:16.809Z,3.20
2018-04-15T18:33:44.431Z,3.00
2018-04-15T18:36:11.879Z,3.13
2018-04-15T18:38:39.302Z,3.27
2018-04-15T18:41:07.545Z,3.80
2018-04-15T18:43:34.975Z,3.30
2018-04-15T18:46:02.776Z,3.10
2018-04-15T18:48:30.212Z,3.70
2018-04-15T18:50:57.677Z,4.03
2018-04-15T18:53:25.152Z,3.47
2018-04-15T18:55:52.597Z,3.37
2018-04-15T18:58:20.258Z,3.10
2018-04-15T19:00:47.644Z,2.90
2018-04-15T19:03:15.096Z,3.20
2018-04-15T19:05:42.667Z,3.60
2018-04-15T19:08:10.104Z,2.90
2018-04-15T19:10:37.542Z,2.50
2018-04-15T19:13:05.356Z,3.30
2018-04-15T19:15:32.840Z,3.20
2018-04-15T19:18:00.315Z,3.63
2018-04-15T19:20:28.094Z,2.70
2018-04-15T19:22:55.704Z,4.13
2018-04-15T19:25:23.159Z,3.70
2018-04-15T19:27:50.609Z,3.90
2018-04-15T19:30:18.086Z,2.67
2018-04-15T19:32:45.681Z,3.80
2018-04-15T19:35:13.151Z,2.97
2018-04-15T19:37:40.780Z,3.30
2018-04-15T19:40:08.220Z,1.77
2018-04-15T19:42:35.688Z,1.23
2018-04-15T19:45:03.120Z,2.90
2018-04-15T19:47:30.958Z,2.50
2018-04-15T19:49:58.396Z,1.33
2018-04-15T19:52:26.173Z,2.20
2018-04-15T19:54:53.668Z,1.60
2018-04-15T19:57:21.122Z,2.03
2018-04-15T19:59:48.572Z,1.20
2018-04-15T20:02:16.033Z,1.20
2018-04-15T20:04:43.497Z,1.00
2018-04-15T20:07:10.925Z,1.20
2018-04-15T20:09:38.377Z,1.43
2018-04-15T20:12:05.876Z,1.40
2018-04-15T20:14:33.301Z,1.17
2018-04-15T20:17:00.923Z,0.93
2018-04-15T20:19:28.369Z,1.53
2018-04-15T20:21:55.818Z,1.57
2018-04-15T20:24:23.296Z,1.10
2018-04-15T20:26:57.139Z,1.70
2018-04-15T20:29:25.365Z,1.00
2018-04-15T20:31:52.837Z,1.23
2018-04-15T20:34:20.289Z,1.50
2018-04-15T20:36:47.733Z,1.23
2018-04-15T20:39:15.807Z,1.60
2018-04-15T20:41:43.281Z,1.10
2018-04-15T20:44:10.856Z,1.30
2018-04-15T20:46:38.300Z,2.90
2018-04-15T20:49:05.745Z,1.37
2018-04-15T20:51:33.223Z,1.17
2018-04-15T20:54:00.647Z,1.10
2018-04-15T20:56:28.110Z,1.07
2018-04-15T20:58:55.553Z,0.93
2018-04-15T21:01:23.008Z,1.27
2018-04-15T21:03:52.688Z,1.10
2018-04-15T21:06:20.376Z,0.93
2018-04-15T21:08:47.828Z,1.10
2018-04-15T21:11:15.282Z,1.30
2018-04-15T21:13:42.766Z,1.30
2018-04-15T21:16:10.224Z,1.30
2018-04-15T21:18:37.682Z,1.10
2018-04-15T21:21:05.134Z,1.80
2018-04-15T21:23:32.904Z,1.40
2018-04-15T21:26:00.448Z,1.50
2018-04-15T21:28:27.892Z,1.27
2018-04-15T21:30:55.336Z,1.43
2018-04-15T21:33:23.555Z,1.17
2018-04-15T21:35:51.010Z,1.20
2018-04-15T21:38:18.573Z,1.57
2018-04-15T21:40:46.019Z,1.17
2018-04-15T21:43:13.475Z,1.67
2018-04-15T21:45:40.962Z,1.50
2018-04-15T21:48:08.400Z,1.57
2018-04-15T21:50:36.131Z,1.67
2018-04-15T21:53:03.583Z,1.30
2018-04-15T21:55:31.032Z,1.30
2018-04-15T21:57:58.527Z,1.87
2018-04-15T22:00:26.371Z,1.67
2018-04-15T22:02:53.856Z,1.40
2018-04-15T22:05:21.305Z,1.60
2018-04-15T22:07:48.739Z,1.80
2018-04-15T22:10:16.200Z,1.50
2018-04-15T22:12:43.660Z,1.50
2018-04-15T22:15:11.120Z,2.00
2018-04-15T22:17:38.570Z,1.73
2018-04-15T22:20:06.011Z,1.90
2018-04-15T22:22:33.527Z,1.40
2018-04-15T22:25:00.978Z,1.60
2018-04-15T22:27:28.446Z,1.90
2018-04-15T22:29:55.896Z,1.23
2018-04-15T22:32:23.479Z,1.90
2018-04-15T22:34:50.932Z,1.47
2018-04-15T22:37:18.394Z,1.27
2018-04-15T22:39:45.859Z,1.60
2018-04-15T22:42:13.355Z,1.93
2018-04-15T22:44:40.795Z,1.87
2018-04-15T22:47:08.247Z,1.83
2018-04-15T22:49:35.695Z,1.57
2018-04-15T22:52:03.177Z,2.07
2018-04-15T22:54:30.632Z,2.97
2018-04-15T22:57:03.647Z,1.90
2018-04-15T22:59:31.096Z,1.80
2018-04-15T23:01:59.163Z,1.20
2018-04-15T23:04:26.611Z,2.17
2018-04-15T23:06:54.059Z,2.00
2018-04-15T23:09:21.492Z,2.10
2018-04-15T23:11:49.101Z,1.47
2018-04-15T23:14:16.536Z,1.70
2018-04-15T23:16:43.993Z,1.87
2018-04-15T23:19:11.444Z,1.60
2018-04-15T23:21:38.884Z,1.50
2018-04-15T23:24:06.335Z,2.07
2018-04-15T23:26:33.767Z,2.13
2018-04-15T23:29:01.250Z,2.63
2018-04-15T23:31:28.905Z,1.87
2018-04-15T23:33:58.198Z,1.70
2018-04-15T23:36:25.664Z,2.13
2018-04-15T23:38:53.108Z,1.87
2018-04-15T23:41:20.595Z,1.80
2018-04-15T23:43:48.038Z,1.50
2018-04-15T23:46:15.480Z,1.37
2018-04-15T23:48:43.093Z,1.57
2018-04-15T23:51:10.525Z,1.40
2018-04-15T23:53:37.979Z,1.47
2018-04-15T23:56:05.429Z,1.83
2018-04-15T23:58:32.863Z,1.77
